Time;durP1;ratioP1;P1;durP2;ratioP2;P2;SDS_P1;SDS_P2;PMS_P1;PMS_P2;Temp;Humidity;BMP_temperature;BMP_pressure;BME280_temperature;BME280_humidity;BME280_pressure;Samples;Min_cycle;Max_cycle;Signal;HPM_P1;HPM_P2
2023/03/23 00:01:37;;;;;;;26.83;22.77;;;;;;;;;;5041472;28;20430;-79
2023/03/23 00:04:04;;;;;;;29.17;22.73;;;;;;;;;;5038046;28;20446;-81
2023/03/23 00:06:32;;;;;;;26.42;22.10;;;;;;;;;;5039666;28;20482;-79
2023/03/23 00:09:01;;;;;;;27.10;22.85;;;;;;;;;;5039800;28;20399;-79
2023/03/23 00:11:30;;;;;;;28.95;23.00;;;;;;;;;;5041182;28;20936;-79
2023/03/23 00:14:00;;;;;;;26.48;21.85;;;;;;;;;;5040693;28;20409;-79
2023/03/23 00:16:30;;;;;;;25.88;22.58;;;;;;;;;;5046027;28;20415;-79
2023/03/23 00:18:57;;;;;;;24.83;21.25;;;;;;;;;;5037383;28;20423;-80
2023/03/23 00:21:25;;;;;;;23.60;21.02;;;;;;;;;;5043500;28;20435;-79
2023/03/23 00:23:53;;;;;;;26.83;22.35;;;;;;;;;;5042830;28;20423;-80
2023/03/23 00:26:19;;;;;;;26.60;22.83;;;;;;;;;;5043084;28;20439;-79
2023/03/23 00:28:46;;;;;;;24.23;21.60;;;;;;;;;;5042927;28;20429;-81
2023/03/23 00:31:15;;;;;;;25.45;21.27;;;;;;;;;;5038558;28;20429;-79
2023/03/23 00:33:41;;;;;;;24.70;21.42;;;;;;;;;;5038931;28;20433;-79
2023/03/23 00:36:08;;;;;;;23.50;20.52;;;;;;;;;;5042684;28;20431;-79
2023/03/23 00:38:35;;;;;;;24.60;20.27;;;;;;;;;;5040991;28;20486;-79
2023/03/23 00:41:02;;;;;;;25.27;21.15;;;;;;;;;;5041162;28;20417;-79
2023/03/23 00:43:29;;;;;;;23.70;21.20;;;;;;;;;;5044392;28;20430;-79
2023/03/23 00:45:56;;;;;;;24.45;21.23;;;;;;;;;;5039446;28;20425;-79
2023/03/23 00:48:24;;;;;;;22.27;19.60;;;;;;;;;;5046204;28;20517;-79
2023/03/23 00:50:52;;;;;;;23.55;20.48;;;;;;;;;;5040150;28;20945;-79
2023/03/23 00:53:19;;;;;;;25.10;20.90;;;;;;;;;;5044396;28;20438;-81
2023/03/23 00:55:46;;;;;;;25.10;20.63;;;;;;;;;;5043485;28;20432;-80
2023/03/23 00:58:13;;;;;;;24.92;20.50;;;;;;;;;;5041915;28;20431;-80
2023/03/23 01:00:39;;;;;;;24.05;20.60;;;;;;;;;;5043006;28;21035;-80
2023/03/23 01:03:06;;;;;;;23.97;20.80;;;;;;;;;;5048655;28;20439;-79
2023/03/23 01:05:36;;;;;;;23.83;20.77;;;;;;;;;;5046982;28;20439;-79
2023/03/23 01:08:02;;;;;;;25.75;20.55;;;;;;;;;;5043120;28;20439;-81
2023/03/23 01:10:32;;;;;;;25.42;20.48;;;;;;;;;;5046435;28;20424;-81
2023/03/23 01:12:59;;;;;;;25.02;21.00;;;;;;;;;;5041093;28;20974;-79
2023/03/23 01:15:26;;;;;;;28.58;20.90;;;;;;;;;;5045391;28;20454;-81
2023/03/23 01:17:52;;;;;;;24.75;21.48;;;;;;;;;;5046961;28;20430;-81
2023/03/23 01:20:19;;;;;;;27.40;21.52;;;;;;;;;;5048255;28;20433;-81
2023/03/23 01:22:47;;;;;;;26.73;20.70;;;;;;;;;;5046699;28;22023;-81
2023/03/23 01:25:13;;;;;;;25.92;21.25;;;;;;;;;;5046845;28;20423;-79
2023/03/23 01:27:40;;;;;;;22.80;19.90;;;;;;;;;;5048351;28;20448;-80
2023/03/23 01:30:08;;;;;;;22.20;19.70;;;;;;;;;;5047404;28;20427;-79
2023/03/23 01:32:35;;;;;;;23.27;19.63;;;;;;;;;;5044950;28;20434;-79
2023/03/23 01:35:02;;;;;;;24.52;20.88;;;;;;;;;;5043750;28;20937;-80
2023/03/23 01:37:29;;;;;;;24.10;19.88;;;;;;;;;;5041878;28;20434;-79
2023/03/23 01:39:57;;;;;;;22.27;19.13;;;;;;;;;;5046058;28;20799;-79
2023/03/23 01:42:24;;;;;;;25.02;20.15;;;;;;;;;;5045828;28;20439;-79
2023/03/23 01:45:08;;;;;;;25.87;19.70;;;;;;;;;;5043515;28;20444;-80
2023/03/23 01:47:35;;;;;;;24.40;19.47;;;;;;;;;;5041142;28;20426;-79
2023/03/23 01:50:03;;;;;;;24.75;19.10;;;;;;;;;;5055322;28;20428;-79
2023/03/23 01:52:30;;;;;;;22.42;19.40;;;;;;;;;;5064244;28;20467;-79
2023/03/23 01:54:58;;;;;;;21.02;18.75;;;;;;;;;;5068534;28;20422;-79
2023/03/23 01:57:26;;;;;;;24.05;19.60;;;;;;;;;;5065981;28;20434;-81
2023/03/23 01:59:53;;;;;;;22.70;18.47;;;;;;;;;;5051764;28;20830;-79
2023/03/23 02:02:20;;;;;;;21.60;18.40;;;;;;;;;;5042116;28;20433;-79
2023/03/23 02:04:47;;;;;;;23.27;18.30;;;;;;;;;;5043150;28;20939;-79
2023/03/23 02:07:15;;;;;;;21.23;19.02;;;;;;;;;;5044833;28;20444;-79
2023/03/23 02:09:41;;;;;;;21.17;16.55;;;;;;;;;;5040486;28;20422;-81
2023/03/23 02:12:09;;;;;;;22.77;17.63;;;;;;;;;;5045212;28;20429;-81
2023/03/23 02:14:35;;;;;;;19.20;17.08;;;;;;;;;;5041420;28;20425;-79
2023/03/23 02:17:05;;;;;;;21.75;18.52;;;;;;;;;;5045038;28;20433;-81
2023/03/23 02:19:41;;;;;;;23.48;18.15;;;;;;;;;;5050043;28;20802;-80
2023/03/23 02:22:23;;;;;;;21.73;17.15;;;;;;;;;;5064207;28;20437;-79
2023/03/23 02:24:54;;;;;;;20.48;16.35;;;;;;;;;;5058339;28;20424;-79
2023/03/23 02:27:28;;;;;;;21.42;17.05;;;;;;;;;;5062910;28;20516;-80
2023/03/23 02:30:14;;;;;;;18.63;16.00;;;;;;;;;;5062261;28;20860;-80
2023/03/23 02:32:55;;;;;;;19.10;17.00;;;;;;;;;;5062279;28;21080;-79
2023/03/23 02:35:25;;;;;;;18.48;16.50;;;;;;;;;;5059283;28;20414;-81
2023/03/23 02:37:53;;;;;;;18.10;16.20;;;;;;;;;;5064637;28;20947;-81
2023/03/23 02:40:22;;;;;;;19.40;15.70;;;;;;;;;;5058881;28;20778;-80
2023/03/23 02:42:50;;;;;;;20.73;16.35;;;;;;;;;;5061509;28;20477;-79
2023/03/23 02:45:18;;;;;;;20.05;15.68;;;;;;;;;;5062279;28;20426;-79
2023/03/23 02:47:45;;;;;;;18.20;15.57;;;;;;;;;;5063370;28;20427;-79
2023/03/23 02:50:14;;;;;;;21.75;17.17;;;;;;;;;;5063346;28;20457;-79
2023/03/23 02:52:43;;;;;;;21.33;16.95;;;;;;;;;;5062437;28;20475;-79
2023/03/23 02:55:11;;;;;;;17.92;15.48;;;;;;;;;;5066711;28;20427;-81
2023/03/23 02:57:38;;;;;;;18.08;15.90;;;;;;;;;;5066606;28;20521;-81
2023/03/23 03:00:06;;;;;;;20.30;15.10;;;;;;;;;;5064038;28;20770;-80
2023/03/23 03:02:33;;;;;;;17.60;15.20;;;;;;;;;;5060607;28;20445;-81
2023/03/23 03:05:02;;;;;;;16.45;14.48;;;;;;;;;;5067277;28;20425;-80
2023/03/23 03:07:35;;;;;;;17.70;14.90;;;;;;;;;;5063971;28;20786;-79
2023/03/23 03:10:05;;;;;;;17.02;14.40;;;;;;;;;;5061830;28;20421;-80
2023/03/23 03:12:35;;;;;;;17.98;14.98;;;;;;;;;;5063675;28;20542;-80
2023/03/23 03:15:07;;;;;;;16.88;14.65;;;;;;;;;;5049499;28;20409;-80
2023/03/23 03:17:35;;;;;;;16.75;15.05;;;;;;;;;;5040744;28;20839;-81
2023/03/23 03:20:06;;;;;;;17.02;14.20;;;;;;;;;;5041670;28;20432;-81
2023/03/23 03:22:37;;;;;;;16.45;14.30;;;;;;;;;;5043821;28;20978;-79
2023/03/23 03:25:06;;;;;;;16.70;14.90;;;;;;;;;;5046334;28;20417;-79
2023/03/23 03:27:33;;;;;;;16.65;14.23;;;;;;;;;;5043190;28;20429;-79
2023/03/23 03:30:00;;;;;;;18.30;15.07;;;;;;;;;;5041322;28;20417;-79
2023/03/23 03:32:31;;;;;;;16.20;13.98;;;;;;;;;;5041842;28;20430;-79
2023/03/23 03:34:59;;;;;;;17.90;14.05;;;;;;;;;;5041966;28;20429;-79
2023/03/23 03:37:26;;;;;;;16.70;14.40;;;;;;;;;;5042231;28;20774;-79
2023/03/23 03:39:52;;;;;;;16.60;13.38;;;;;;;;;;5039843;28;21119;-79
2023/03/23 03:42:20;;;;;;;15.63;12.93;;;;;;;;;;5041963;28;20421;-79
2023/03/23 03:44:46;;;;;;;15.40;13.15;;;;;;;;;;5041026;28;20425;-79
2023/03/23 03:47:13;;;;;;;15.93;13.45;;;;;;;;;;5041089;28;20932;-81
2023/03/23 03:49:40;;;;;;;15.27;13.10;;;;;;;;;;5041271;28;20925;-80
2023/03/23 03:52:07;;;;;;;15.20;11.90;;;;;;;;;;5042389;28;20457;-81
2023/03/23 03:54:33;;;;;;;14.50;12.30;;;;;;;;;;5043384;28;20500;-81
2023/03/23 03:56:59;;;;;;;13.98;11.90;;;;;;;;;;5044494;28;20795;-81
2023/03/23 03:59:27;;;;;;;14.88;12.55;;;;;;;;;;5041901;28;20433;-81
2023/03/23 04:01:54;;;;;;;16.30;11.95;;;;;;;;;;5040689;28;20436;-81
2023/03/23 04:04:21;;;;;;;14.55;11.40;;;;;;;;;;5042282;28;20440;-81
2023/03/23 04:06:48;;;;;;;14.57;11.43;;;;;;;;;;5042402;28;20492;-80
2023/03/23 04:09:15;;;;;;;14.30;11.90;;;;;;;;;;5038222;28;21119;-81
2023/03/23 04:11:41;;;;;;;13.30;11.38;;;;;;;;;;5040172;28;20417;-81
2023/03/23 04:14:08;;;;;;;15.35;13.30;;;;;;;;;;5045333;28;20415;-81
2023/03/23 04:16:35;;;;;;;15.85;12.55;;;;;;;;;;5039901;28;20423;-81
2023/03/23 04:19:02;;;;;;;18.92;12.50;;;;;;;;;;5040428;28;20415;-79
2023/03/23 04:21:29;;;;;;;16.33;12.82;;;;;;;;;;5047076;28;20425;-79
2023/03/23 04:23:58;;;;;;;15.52;13.35;;;;;;;;;;5042829;28;20506;-79
2023/03/23 04:26:25;;;;;;;14.38;12.60;;;;;;;;;;5042978;28;20429;-81
2023/03/23 04:28:51;;;;;;;18.30;13.50;;;;;;;;;;5045221;28;20440;-81
2023/03/23 04:31:18;;;;;;;14.32;12.82;;;;;;;;;;5048737;28;20779;-79
2023/03/23 04:33:46;;;;;;;15.65;13.23;;;;;;;;;;5045040;28;20937;-81
2023/03/23 04:36:15;;;;;;;15.18;12.95;;;;;;;;;;5049686;28;20414;-80
2023/03/23 04:38:42;;;;;;;14.68;12.55;;;;;;;;;;5047406;28;20514;-81
2023/03/23 04:41:09;;;;;;;15.43;12.43;;;;;;;;;;5047549;28;21248;-80
2023/03/23 04:43:41;;;;;;;16.88;12.07;;;;;;;;;;5049878;28;20421;-79
2023/03/23 04:46:09;;;;;;;15.82;11.90;;;;;;;;;;5048753;28;20925;-79
2023/03/23 04:48:38;;;;;;;15.63;11.98;;;;;;;;;;5047606;28;20432;-81
2023/03/23 04:51:06;;;;;;;12.07;10.50;;;;;;;;;;5046032;28;20429;-80
2023/03/23 04:53:33;;;;;;;15.20;11.60;;;;;;;;;;5052191;28;20488;-81
2023/03/23 04:56:00;;;;;;;12.65;11.10;;;;;;;;;;5050103;28;20413;-81
2023/03/23 04:58:27;;;;;;;13.50;10.95;;;;;;;;;;5047361;28;20480;-80
2023/03/23 05:00:54;;;;;;;14.38;10.80;;;;;;;;;;5064389;28;20423;-81
2023/03/23 05:03:21;;;;;;;14.47;11.40;;;;;;;;;;5071288;28;20430;-79
2023/03/23 05:05:51;;;;;;;12.88;11.02;;;;;;;;;;5065856;28;20431;-81
2023/03/23 05:08:19;;;;;;;12.60;11.30;;;;;;;;;;5067950;28;20440;-79
2023/03/23 05:10:50;;;;;;;13.45;10.50;;;;;;;;;;5066942;28;20423;-79
2023/03/23 05:13:16;;;;;;;13.15;11.35;;;;;;;;;;5068963;28;20449;-79
2023/03/23 05:15:43;;;;;;;12.85;10.98;;;;;;;;;;5069922;28;21193;-79
2023/03/23 05:18:11;;;;;;;12.68;10.70;;;;;;;;;;5067975;28;20424;-79
2023/03/23 05:20:38;;;;;;;11.45;10.00;;;;;;;;;;5049729;28;20472;-79
2023/03/23 05:23:06;;;;;;;14.23;10.57;;;;;;;;;;5052209;28;20420;-79
2023/03/23 05:25:36;;;;;;;13.32;9.88;;;;;;;;;;5049983;28;20924;-81
2023/03/23 05:28:03;;;;;;;13.25;10.10;;;;;;;;;;5043488;28;20427;-81
2023/03/23 05:30:29;;;;;;;12.73;9.80;;;;;;;;;;5044069;28;20516;-79
2023/03/23 05:32:56;;;;;;;12.15;9.10;;;;;;;;;;5047047;28;20439;-81
2023/03/23 05:35:22;;;;;;;15.70;10.60;;;;;;;;;;5050493;28;20417;-80
2023/03/23 05:37:49;;;;;;;16.42;9.02;;;;;;;;;;5049775;28;20460;-79
2023/03/23 05:40:17;;;;;;;9.98;8.98;;;;;;;;;;5043644;28;20424;-79
2023/03/23 05:42:45;;;;;;;10.93;9.68;;;;;;;;;;5046617;28;20437;-79
2023/03/23 05:45:12;;;;;;;12.07;9.07;;;;;;;;;;5045409;28;20520;-79
2023/03/23 05:47:39;;;;;;;10.63;9.13;;;;;;;;;;5044206;28;20467;-81
2023/03/23 05:50:08;;;;;;;9.40;8.40;;;;;;;;;;5042034;28;20922;-79
2023/03/23 05:52:36;;;;;;;11.10;10.00;;;;;;;;;;5047724;28;20918;-79
2023/03/23 05:55:04;;;;;;;12.02;9.15;;;;;;;;;;5047166;28;20427;-79
2023/03/23 05:57:31;;;;;;;10.77;9.18;;;;;;;;;;5044833;28;20486;-79
2023/03/23 05:59:59;;;;;;;11.68;9.60;;;;;;;;;;5047077;28;20425;-80
2023/03/23 06:02:28;;;;;;;10.07;9.07;;;;;;;;;;5047414;28;20997;-79
2023/03/23 06:04:57;;;;;;;14.90;10.00;;;;;;;;;;5044372;28;21001;-79
2023/03/23 06:07:24;;;;;;;10.68;8.98;;;;;;;;;;5040429;28;20510;-79
2023/03/23 06:09:50;;;;;;;11.73;9.57;;;;;;;;;;5045697;28;20448;-79
2023/03/23 06:12:19;;;;;;;11.43;9.48;;;;;;;;;;5044303;28;20444;-79
2023/03/23 06:14:46;;;;;;;12.57;9.00;;;;;;;;;;5042507;28;20442;-79
2023/03/23 06:17:14;;;;;;;11.18;9.70;;;;;;;;;;5023958;28;20446;-80
2023/03/23 06:19:41;;;;;;;12.75;9.40;;;;;;;;;;5044391;28;20426;-80
2023/03/23 06:22:07;;;;;;;10.05;8.82;;;;;;;;;;5045388;28;20429;-80
2023/03/23 06:24:34;;;;;;;11.70;8.75;;;;;;;;;;5045469;28;20424;-80
2023/03/23 06:27:00;;;;;;;12.48;9.18;;;;;;;;;;5044750;28;20433;-80
2023/03/23 06:29:27;;;;;;;9.48;8.40;;;;;;;;;;5044696;28;20425;-80
2023/03/23 06:31:56;;;;;;;9.67;8.20;;;;;;;;;;5044357;28;20505;-80
2023/03/23 06:34:24;;;;;;;13.00;8.90;;;;;;;;;;5043161;28;20458;-79
2023/03/23 06:36:51;;;;;;;14.77;8.70;;;;;;;;;;5047981;28;20435;-79
2023/03/23 06:39:17;;;;;;;10.25;8.30;;;;;;;;;;5049647;28;20430;-80
2023/03/23 06:41:44;;;;;;;12.70;8.97;;;;;;;;;;5043048;28;20433;-80
2023/03/23 06:44:13;;;;;;;11.60;8.50;;;;;;;;;;5045223;28;20409;-80
2023/03/23 06:46:40;;;;;;;9.70;8.20;;;;;;;;;;5043504;28;20958;-80
2023/03/23 06:49:06;;;;;;;9.52;8.00;;;;;;;;;;5045359;28;20938;-79
2023/03/23 06:51:35;;;;;;;12.60;8.40;;;;;;;;;;5045571;28;20494;-79
2023/03/23 06:54:01;;;;;;;10.40;7.95;;;;;;;;;;5043661;28;20426;-79
2023/03/23 06:56:27;;;;;;;9.60;8.60;;;;;;;;;;5042844;28;20425;-81
2023/03/23 06:58:54;;;;;;;13.27;9.13;;;;;;;;;;5043275;28;20849;-81
2023/03/23 07:01:20;;;;;;;10.48;8.60;;;;;;;;;;5044482;28;20432;-81
2023/03/23 07:03:46;;;;;;;9.98;8.98;;;;;;;;;;5044619;28;20489;-81
2023/03/23 07:06:13;;;;;;;11.13;8.90;;;;;;;;;;5041261;28;20430;-81
2023/03/23 07:08:41;;;;;;;13.15;8.27;;;;;;;;;;5040517;28;20440;-81
2023/03/23 07:11:07;;;;;;;9.93;7.30;;;;;;;;;;5044366;28;20438;-81
2023/03/23 07:13:34;;;;;;;13.23;7.78;;;;;;;;;;5043992;28;20795;-80
2023/03/23 07:16:00;;;;;;;8.32;6.20;;;;;;;;;;5042196;28;20436;-80
2023/03/23 07:18:27;;;;;;;10.33;5.83;;;;;;;;;;5044778;28;20429;-80
2023/03/23 07:20:54;;;;;;;8.88;5.75;;;;;;;;;;5044423;28;20532;-80
2023/03/23 07:23:20;;;;;;;10.02;5.70;;;;;;;;;;5044707;28;20431;-80
2023/03/23 07:25:48;;;;;;;9.55;4.60;;;;;;;;;;5039362;28;21002;-79
2023/03/23 07:28:15;;;;;;;11.00;4.17;;;;;;;;;;5042102;28;20472;-78
2023/03/23 07:30:41;;;;;;;9.40;4.28;;;;;;;;;;5038723;28;20424;-80
2023/03/23 07:33:08;;;;;;;9.70;3.90;;;;;;;;;;5040552;28;20421;-78
2023/03/23 07:35:36;;;;;;;7.50;3.70;;;;;;;;;;5045211;28;20932;-80
2023/03/23 07:38:04;;;;;;;7.53;3.55;;;;;;;;;;5044569;28;20429;-80
2023/03/23 07:40:33;;;;;;;8.32;3.30;;;;;;;;;;5040445;28;20457;-80
2023/03/23 07:43:01;;;;;;;9.13;3.30;;;;;;;;;;5040601;28;20475;-78
2023/03/23 07:45:28;;;;;;;9.03;3.40;;;;;;;;;;5043499;28;20449;-78
2023/03/23 07:47:54;;;;;;;10.13;3.05;;;;;;;;;;5040914;28;20431;-80
2023/03/23 07:50:24;;;;;;;7.32;2.53;;;;;;;;;;5042931;28;20462;-78
2023/03/23 07:52:50;;;;;;;7.53;2.80;;;;;;;;;;5042454;28;20433;-78
2023/03/23 07:55:18;;;;;;;7.13;2.50;;;;;;;;;;5042407;28;20431;-78
2023/03/23 07:57:45;;;;;;;5.10;2.40;;;;;;;;;;5044693;28;20802;-79
2023/03/23 08:00:18;;;;;;;9.48;2.95;;;;;;;;;;5041523;28;20431;-79
2023/03/23 08:02:45;;;;;;;9.57;3.63;;;;;;;;;;5041559;28;21014;-81
2023/03/23 08:05:13;;;;;;;9.73;3.30;;;;;;;;;;5039709;28;20515;-80
2023/03/23 08:07:39;;;;;;;9.93;3.10;;;;;;;;;;5044717;28;20930;-80
2023/03/23 08:10:09;;;;;;;8.73;3.10;;;;;;;;;;5042355;28;20433;-78
2023/03/23 08:12:36;;;;;;;8.00;2.85;;;;;;;;;;5041757;28;20476;-80
2023/03/23 08:15:04;;;;;;;6.40;2.90;;;;;;;;;;5042033;28;21029;-78
2023/03/23 08:17:32;;;;;;;5.97;2.70;;;;;;;;;;5041577;28;20431;-78
2023/03/23 08:19:58;;;;;;;7.65;3.17;;;;;;;;;;5041146;28;20425;-79
2023/03/23 08:22:24;;;;;;;6.70;3.10;;;;;;;;;;5044439;28;20429;-79
2023/03/23 08:24:50;;;;;;;5.60;2.70;;;;;;;;;;5040836;28;20431;-78
2023/03/23 08:27:17;;;;;;;6.78;3.13;;;;;;;;;;5044436;28;20431;-79
2023/03/23 08:29:44;;;;;;;8.57;3.45;;;;;;;;;;5041583;28;20961;-79
2023/03/23 08:32:11;;;;;;;7.65;3.85;;;;;;;;;;5041186;28;20478;-79
2023/03/23 08:34:39;;;;;;;6.15;3.80;;;;;;;;;;5040541;28;20429;-79
2023/03/23 08:37:05;;;;;;;6.93;3.40;;;;;;;;;;5042615;28;20417;-78
2023/03/23 08:39:33;;;;;;;6.60;3.55;;;;;;;;;;5041636;28;20425;-79
2023/03/23 08:42:00;;;;;;;9.73;3.72;;;;;;;;;;5041874;28;20773;-79
2023/03/23 08:44:26;;;;;;;6.70;3.40;;;;;;;;;;5040014;28;20436;-78
2023/03/23 08:46:56;;;;;;;10.05;4.10;;;;;;;;;;5042683;28;20425;-78
2023/03/23 08:49:22;;;;;;;9.02;3.97;;;;;;;;;;5039110;28;20452;-79
2023/03/23 08:51:50;;;;;;;10.77;4.35;;;;;;;;;;5041035;28;20442;-78
2023/03/23 08:54:16;;;;;;;13.73;4.60;;;;;;;;;;5041348;28;20429;-78
2023/03/23 08:56:43;;;;;;;11.75;4.15;;;;;;;;;;5043545;28;20421;-79
2023/03/23 08:59:09;;;;;;;15.23;5.18;;;;;;;;;;5044219;28;20423;-78
2023/03/23 09:01:36;;;;;;;12.48;4.57;;;;;;;;;;5043288;28;20431;-78
2023/03/23 09:04:02;;;;;;;12.25;4.35;;;;;;;;;;5045115;28;20455;-79
2023/03/23 09:06:30;;;;;;;9.82;3.85;;;;;;;;;;5041225;28;20491;-79
2023/03/23 09:08:58;;;;;;;8.60;4.33;;;;;;;;;;5038320;28;20522;-79
2023/03/23 09:11:25;;;;;;;13.40;4.53;;;;;;;;;;5042529;28;20596;-79
2023/03/23 09:13:51;;;;;;;14.90;4.97;;;;;;;;;;5042308;28;20422;-80
2023/03/23 09:16:18;;;;;;;15.50;4.40;;;;;;;;;;5044151;28;20550;-79
2023/03/23 09:18:46;;;;;;;13.57;4.43;;;;;;;;;;5049111;28;20429;-80
2023/03/23 09:21:12;;;;;;;16.25;5.45;;;;;;;;;;5046637;28;20436;-78
2023/03/23 09:23:41;;;;;;;23.10;5.78;;;;;;;;;;5045627;28;20516;-80
2023/03/23 09:26:14;;;;;;;13.20;4.32;;;;;;;;;;5045045;28;20786;-79
2023/03/23 09:28:41;;;;;;;18.30;4.63;;;;;;;;;;5040752;28;20434;-81
2023/03/23 09:31:08;;;;;;;11.02;4.07;;;;;;;;;;5041754;28;20924;-80
2023/03/23 09:33:35;;;;;;;11.90;4.10;;;;;;;;;;5044483;28;20438;-81
2023/03/23 09:36:04;;;;;;;14.48;4.82;;;;;;;;;;5043330;28;20440;-78
2023/03/23 09:38:33;;;;;;;12.55;4.10;;;;;;;;;;5045918;28;20429;-80
2023/03/23 09:41:02;;;;;;;12.23;4.40;;;;;;;;;;5043834;28;20487;-79
2023/03/23 09:43:38;;;;;;;11.52;4.90;;;;;;;;;;5043525;28;20430;-78
2023/03/23 09:46:12;;;;;;;13.25;5.07;;;;;;;;;;5046089;28;20425;-79
2023/03/23 09:48:43;;;;;;;9.68;5.82;;;;;;;;;;5042308;28;20910;-80
2023/03/23 09:51:19;;;;;;;10.77;5.05;;;;;;;;;;5042428;28;20486;-80
2023/03/23 09:53:48;;;;;;;9.43;4.90;;;;;;;;;;5045707;28;20413;-79
2023/03/23 09:56:16;;;;;;;11.90;4.30;;;;;;;;;;5046401;28;20428;-81
2023/03/23 09:58:46;;;;;;;9.70;4.30;;;;;;;;;;5045163;28;20461;-79
2023/03/23 10:01:16;;;;;;;10.90;4.25;;;;;;;;;;5044364;28;20425;-80
2023/03/23 10:03:43;;;;;;;10.33;4.60;;;;;;;;;;5042674;28;20902;-81
2023/03/23 10:06:12;;;;;;;7.15;4.65;;;;;;;;;;5039174;28;20415;-80
2023/03/23 10:08:42;;;;;;;8.93;4.90;;;;;;;;;;5043739;28;20429;-78
2023/03/23 10:11:17;;;;;;;12.10;4.50;;;;;;;;;;5062388;28;20774;-80
2023/03/23 10:13:54;;;;;;;14.80;5.50;;;;;;;;;;5062884;28;20920;-80
2023/03/23 10:16:22;;;;;;;12.68;4.40;;;;;;;;;;5062631;28;20456;-80
2023/03/23 10:18:52;;;;;;;10.60;4.78;;;;;;;;;;5068251;28;20441;-79
2023/03/23 10:21:21;;;;;;;6.85;4.05;;;;;;;;;;5044070;28;20470;-78
2023/03/23 10:23:53;;;;;;;12.63;4.40;;;;;;;;;;5046192;28;20422;-80
2023/03/23 10:26:24;;;;;;;11.20;4.50;;;;;;;;;;5042272;28;20427;-81
2023/03/23 10:28:55;;;;;;;10.82;4.30;;;;;;;;;;5041574;28;20451;-80
2023/03/23 10:31:23;;;;;;;11.65;5.00;;;;;;;;;;5043180;28;20417;-78
2023/03/23 10:33:55;;;;;;;11.80;4.55;;;;;;;;;;5043910;28;20423;-79
2023/03/23 10:36:25;;;;;;;11.68;4.55;;;;;;;;;;5046619;28;20429;-81
2023/03/23 10:38:57;;;;;;;9.35;4.00;;;;;;;;;;5040490;28;20423;-80
2023/03/23 10:41:24;;;;;;;10.35;4.53;;;;;;;;;;5041984;28;20430;-80
2023/03/23 10:43:54;;;;;;;13.88;4.63;;;;;;;;;;5042320;28;20436;-79
2023/03/23 10:46:27;;;;;;;11.73;4.50;;;;;;;;;;5041979;28;20462;-79
2023/03/23 10:48:55;;;;;;;8.90;4.38;;;;;;;;;;5044337;28;20429;-78
2023/03/23 10:51:23;;;;;;;12.43;5.00;;;;;;;;;;5042950;28;20429;-79
2023/03/23 10:53:52;;;;;;;14.32;4.95;;;;;;;;;;5044204;28;20452;-79
2023/03/23 10:56:22;;;;;;;17.55;6.50;;;;;;;;;;5045192;28;20517;-78
2023/03/23 10:58:48;;;;;;;16.75;5.07;;;;;;;;;;5043587;28;20419;-78
2023/03/23 11:01:18;;;;;;;16.92;5.50;;;;;;;;;;5045219;28;20433;-77
2023/03/23 11:03:48;;;;;;;14.50;5.70;;;;;;;;;;5041757;28;20438;-77
2023/03/23 11:06:20;;;;;;;17.30;5.13;;;;;;;;;;5045098;28;20425;-80
2023/03/23 11:08:52;;;;;;;17.75;5.88;;;;;;;;;;5042647;28;20431;-80
2023/03/23 11:11:21;;;;;;;11.38;5.40;;;;;;;;;;5044620;28;20425;-81
2023/03/23 11:13:51;;;;;;;15.98;5.70;;;;;;;;;;5048071;28;20939;-80
2023/03/23 11:16:26;;;;;;;14.88;6.20;;;;;;;;;;5045426;28;20432;-81
2023/03/23 11:18:53;;;;;;;15.52;5.15;;;;;;;;;;5046602;28;20448;-81
2023/03/23 11:21:21;;;;;;;13.05;5.40;;;;;;;;;;5046042;28;20433;-80
2023/03/23 11:23:50;;;;;;;12.98;5.85;;;;;;;;;;5043055;28;20833;-80
2023/03/23 11:26:17;;;;;;;12.27;5.95;;;;;;;;;;5044883;28;20437;-79
2023/03/23 11:28:44;;;;;;;12.23;6.00;;;;;;;;;;5045874;28;20429;-79
2023/03/23 11:31:11;;;;;;;12.45;5.20;;;;;;;;;;5046314;28;20427;-79
2023/03/23 11:33:40;;;;;;;11.55;4.90;;;;;;;;;;5043580;28;20417;-79
2023/03/23 11:36:08;;;;;;;13.57;4.75;;;;;;;;;;5048959;28;20432;-79
2023/03/23 11:38:35;;;;;;;13.23;5.60;;;;;;;;;;5043955;28;20448;-79
2023/03/23 11:41:01;;;;;;;11.93;5.18;;;;;;;;;;5043525;28;20425;-79
2023/03/23 11:43:27;;;;;;;11.88;4.47;;;;;;;;;;5041801;28;20780;-81
2023/03/23 11:45:59;;;;;;;7.70;4.28;;;;;;;;;;5042986;28;20429;-79
2023/03/23 11:48:28;;;;;;;12.90;5.03;;;;;;;;;;5043271;28;20431;-79
2023/03/23 11:50:58;;;;;;;8.85;4.30;;;;;;;;;;5047692;28;20431;-79
2023/03/23 11:53:31;;;;;;;10.52;4.30;;;;;;;;;;5045522;28;20419;-79
2023/03/23 11:56:02;;;;;;;8.52;3.90;;;;;;;;;;5043643;28;20796;-79
2023/03/23 11:58:32;;;;;;;9.00;3.60;;;;;;;;;;5045654;28;20429;-79
2023/03/23 12:00:59;;;;;;;10.80;4.30;;;;;;;;;;5043290;28;20451;-79
2023/03/23 12:03:28;;;;;;;9.35;3.70;;;;;;;;;;5045622;28;20425;-79
2023/03/23 12:06:00;;;;;;;8.15;3.13;;;;;;;;;;5037074;28;20432;-80
2023/03/23 12:08:33;;;;;;;8.35;2.60;;;;;;;;;;5038419;28;20432;-79
2023/03/23 12:11:05;;;;;;;7.67;3.00;;;;;;;;;;5044845;28;20436;-79
2023/03/23 12:13:40;;;;;;;6.88;2.60;;;;;;;;;;5040545;28;20433;-79
2023/03/23 12:16:11;;;;;;;5.15;2.58;;;;;;;;;;5064549;28;20477;-79
2023/03/23 12:18:42;;;;;;;8.68;3.00;;;;;;;;;;5067138;28;20412;-80
2023/03/23 12:21:20;;;;;;;5.13;2.53;;;;;;;;;;5040783;28;20421;-81
2023/03/23 12:23:50;;;;;;;6.13;2.30;;;;;;;;;;5039471;28;20421;-81
2023/03/23 12:26:19;;;;;;;9.02;3.10;;;;;;;;;;5042536;28;20430;-79
2023/03/23 12:29:05;;;;;;;9.85;3.83;;;;;;;;;;5043223;28;21050;-79
2023/03/23 12:31:35;;;;;;;6.45;3.75;;;;;;;;;;5041513;28;20436;-79
2023/03/23 12:34:07;;;;;;;7.45;4.10;;;;;;;;;;5044650;28;20415;-79
2023/03/23 12:36:45;;;;;;;7.38;3.80;;;;;;;;;;5044531;28;20437;-79
2023/03/23 12:39:35;;;;;;;5.80;3.70;;;;;;;;;;5042968;28;20797;-79
2023/03/23 12:42:06;;;;;;;6.03;4.10;;;;;;;;;;5028883;28;20441;-79
2023/03/23 12:44:36;;;;;;;7.32;4.05;;;;;;;;;;5042642;28;20425;-79
2023/03/23 12:47:21;;;;;;;6.00;4.18;;;;;;;;;;5043337;28;20429;-79
2023/03/23 12:49:49;;;;;;;8.25;3.60;;;;;;;;;;5045940;28;20783;-80
2023/03/23 12:52:19;;;;;;;7.80;3.30;;;;;;;;;;5047810;28;20433;-79
2023/03/23 12:54:51;;;;;;;7.73;3.10;;;;;;;;;;5047225;28;20417;-80
2023/03/23 12:57:21;;;;;;;4.20;2.70;;;;;;;;;;5046227;28;20504;-79
2023/03/23 12:59:49;;;;;;;7.68;3.38;;;;;;;;;;5046571;28;20764;-79
2023/03/23 13:02:20;;;;;;;7.93;3.00;;;;;;;;;;5045522;28;20452;-79
2023/03/23 13:04:48;;;;;;;8.35;3.10;;;;;;;;;;5047626;28;20427;-79
2023/03/23 13:07:17;;;;;;;8.55;2.90;;;;;;;;;;5044415;28;20697;-79
2023/03/23 13:09:53;;;;;;;11.03;3.53;;;;;;;;;;5043771;28;20431;-79
2023/03/23 13:12:20;;;;;;;6.53;2.75;;;;;;;;;;5043540;28;20959;-79
2023/03/23 13:14:52;;;;;;;7.82;2.90;;;;;;;;;;5044748;28;20512;-79
2023/03/23 13:17:23;;;;;;;11.85;3.55;;;;;;;;;;5041254;28;20435;-79
2023/03/23 13:20:06;;;;;;;9.15;3.17;;;;;;;;;;5041232;28;20779;-79
2023/03/23 13:22:36;;;;;;;8.73;3.15;;;;;;;;;;5042889;28;20861;-79
2023/03/23 13:25:09;;;;;;;8.80;2.80;;;;;;;;;;5043177;28;20477;-79
2023/03/23 13:27:35;;;;;;;5.30;2.70;;;;;;;;;;5046281;28;20534;-79
2023/03/23 13:30:04;;;;;;;5.07;2.80;;;;;;;;;;5049287;28;20437;-80
2023/03/23 13:32:32;;;;;;;6.75;2.90;;;;;;;;;;5045005;28;20435;-79
2023/03/23 13:35:02;;;;;;;7.30;3.25;;;;;;;;;;5044213;28;20413;-79
2023/03/23 13:37:28;;;;;;;6.50;2.60;;;;;;;;;;5041526;28;20793;-78
2023/03/23 13:39:56;;;;;;;9.40;3.20;;;;;;;;;;5044435;28;20421;-78
2023/03/23 13:42:24;;;;;;;8.63;3.20;;;;;;;;;;5043099;28;20433;-79
2023/03/23 13:45:07;;;;;;;3.78;2.38;;;;;;;;;;5044291;28;20448;-81
2023/03/23 13:47:37;;;;;;;5.72;2.47;;;;;;;;;;5046317;28;20468;-79
2023/03/23 13:50:05;;;;;;;6.53;3.10;;;;;;;;;;5043334;28;20428;-80
2023/03/23 13:52:39;;;;;;;7.13;2.63;;;;;;;;;;5045136;28;20423;-80
2023/03/23 13:55:18;;;;;;;7.68;2.85;;;;;;;;;;5036854;28;20857;-81
2023/03/23 13:57:53;;;;;;;7.22;2.70;;;;;;;;;;5046405;28;20431;-81
2023/03/23 14:00:38;;;;;;;5.57;2.67;;;;;;;;;;5041369;28;20455;-79
2023/03/23 14:03:06;;;;;;;5.90;2.50;;;;;;;;;;5045400;28;20429;-79
2023/03/23 14:05:35;;;;;;;5.75;2.35;;;;;;;;;;5039985;28;20448;-80
2023/03/23 14:08:03;;;;;;;6.60;2.92;;;;;;;;;;5043759;28;20435;-79
2023/03/23 14:10:34;;;;;;;4.40;2.30;;;;;;;;;;5045173;28;20449;-79
2023/03/23 14:13:02;;;;;;;6.18;2.50;;;;;;;;;;5044827;28;20471;-80
2023/03/23 14:15:29;;;;;;;5.38;2.22;;;;;;;;;;5044845;28;20429;-79
2023/03/23 14:17:56;;;;;;;6.00;2.90;;;;;;;;;;5050302;28;20427;-79
2023/03/23 14:20:25;;;;;;;5.03;2.20;;;;;;;;;;5045096;28;20425;-80
2023/03/23 14:22:54;;;;;;;5.00;2.42;;;;;;;;;;5058572;28;20499;-80
2023/03/23 14:25:23;;;;;;;4.57;2.08;;;;;;;;;;5043256;28;20502;-80
2023/03/23 14:27:51;;;;;;;6.38;2.22;;;;;;;;;;5049814;28;20431;-80
2023/03/23 14:30:21;;;;;;;5.45;2.05;;;;;;;;;;5042730;28;20814;-79
2023/03/23 14:32:49;;;;;;;6.97;2.70;;;;;;;;;;5046940;28;20433;-80
2023/03/23 14:35:21;;;;;;;5.82;2.50;;;;;;;;;;5045604;28;20433;-80
2023/03/23 14:37:47;;;;;;;8.20;2.50;;;;;;;;;;5049019;28;20441;-80